Weather at Barrie-Lake Simcoe Regional Airport

Public forecast

Using degrees Celsius for public forecast. Weather courtesy of forecast.io.

Closest aviation weather report (METAR) to Barrie-Lake Simcoe Regional Airport

Closest report is Muskoka Airport, 31.2 nm (57.9 km) NNE.

2024/05/30 15:00 (retrieved 26 minutes ago)

CYQA 301500Z AUTO 35008KT 310V060 9SM CLR 14/M00 A3017 RMK SLP224

Closest aviation forecast (TAF) to Barrie-Lake Simcoe Regional Airport

Closest forecast is Muskoka Airport, 31.2 nm (57.9 km) NNE.

2024/05/30 14:42 (retrieved 44 minutes ago)

TAF CYQA 301340Z 3014/3102 34005KT P6SM SKC FM301500 33010KT P6SM SKC FM310000 29005KT P6SM SCT240 RMK FCST BASED ON AUTO OBS NXT FCST BY 302000Z